Berwick, Louisiana
Current Conditions -  °F | °C
As of 6:55 PM on Friday 24 Oct 2014 (Local Time) from KPTN Reporting Station
Clear Clear  
Wind Chill: 66°   Ceiling: Unl
Heat Index: 66°   Visibility: 10mi
Dew Point: 52°   Wind: 0mph
Humidity: 60%   Direction: NA
Pressure: 30.1"   Gusts: NA
Location:  29.69°N, 91.22°W
Report Text: KPTN 242355Z AUTO 00000KT 10SM CLR 19/11 A3010 RMK AO1 10240 20190 402400110 52010
Loading
Personal Weather Stations






























Interactive Weather Map
Tropical Storm Tracking
New forecast layout! Learn more

10-Day Weather Forecast

Advertisements
Track Severe Weather on mobile